createdAt,value
2019-01-15T00:01:04.064Z,34.10
2019-01-15T00:03:31.921Z,36.83
2019-01-15T00:05:59.704Z,29.57
2019-01-15T00:08:27.922Z,32.97
2019-01-15T00:10:55.783Z,39.47
2019-01-15T00:13:23.575Z,38.37
2019-01-15T00:15:51.886Z,38.07
2019-01-15T00:18:20.086Z,37.70
2019-01-15T00:20:48.035Z,29.90
2019-01-15T00:23:15.959Z,37.53
2019-01-15T00:25:43.784Z,36.93
2019-01-15T00:28:12.069Z,38.17
2019-01-15T00:30:40.380Z,41.87
2019-01-15T00:33:08.728Z,49.47
2019-01-15T00:35:37.049Z,34.27
2019-01-15T00:38:04.969Z,31.70
2019-01-15T00:40:32.779Z,30.33
2019-01-15T00:43:01.243Z,31.33
2019-01-15T00:45:32.044Z,35.80
2019-01-15T00:48:00.386Z,27.33
2019-01-15T00:50:31.471Z,39.63
2019-01-15T00:52:59.858Z,31.67
2019-01-15T00:55:27.683Z,28.93
2019-01-15T00:57:57.979Z,31.43
2019-01-15T01:00:28.818Z,25.10
2019-01-15T01:02:57.005Z,27.23
2019-01-15T01:05:27.208Z,36.80
2019-01-15T01:07:55.762Z,25.10
2019-01-15T01:10:24.596Z,26.70
2019-01-15T01:12:52.805Z,29.70
2019-01-15T01:15:20.673Z,41.33
2019-01-15T01:17:48.555Z,31.13
2019-01-15T01:20:21.105Z,29.90
2019-01-15T01:22:49.545Z,28.70
2019-01-15T01:25:18.196Z,25.87
2019-01-15T01:27:45.993Z,27.63
2019-01-15T01:30:24.098Z,31.47
2019-01-15T01:32:53.607Z,23.37
2019-01-15T01:35:21.831Z,30.33
2019-01-15T01:37:53.212Z,28.83
2019-01-15T01:40:22.518Z,26.57
2019-01-15T01:42:50.638Z,36.03
2019-01-15T01:45:22.757Z,38.20
2019-01-15T01:47:50.888Z,36.10
2019-01-15T01:50:21.490Z,38.80
2019-01-15T01:52:51.470Z,25.50
2019-01-15T01:55:20.820Z,29.23
2019-01-15T01:57:50.585Z,35.73
2019-01-15T02:00:20.886Z,33.30
2019-01-15T02:02:49.205Z,28.87
2019-01-15T02:05:17.261Z,34.70
2019-01-15T02:07:46.661Z,31.57
2019-01-15T02:10:21.722Z,30.40
2019-01-15T02:12:52.535Z,36.47
2019-01-15T02:15:22.946Z,26.50
2019-01-15T02:17:53.857Z,33.47
2019-01-15T02:20:22.568Z,24.97
2019-01-15T02:22:51.317Z,28.83
2019-01-15T02:25:19.426Z,26.17
2019-01-15T02:27:49.474Z,24.10
2019-01-15T02:30:19.934Z,21.70
2019-01-15T02:32:48.319Z,18.30
2019-01-15T02:35:16.386Z,22.63
2019-01-15T02:37:44.828Z,20.23
2019-01-15T02:40:13.101Z,25.93
2019-01-15T02:42:46.378Z,19.77
2019-01-15T02:45:15.988Z,26.00
2019-01-15T02:47:44.169Z,28.80
2019-01-15T02:50:13.957Z,17.10
2019-01-15T02:52:42.717Z,19.73
2019-01-15T02:55:11.115Z,17.30
2019-01-15T02:57:40.317Z,26.30
2019-01-15T03:00:17.289Z,22.67
2019-01-15T03:02:45.144Z,22.90
2019-01-15T03:05:13.442Z,15.77
2019-01-15T03:07:41.590Z,16.97
2019-01-15T03:10:11.309Z,21.60
2019-01-15T03:12:41.078Z,21.53
2019-01-15T03:15:09.434Z,29.37
2019-01-15T03:17:37.914Z,20.37
2019-01-15T03:20:06.510Z,20.03
2019-01-15T03:22:34.806Z,18.80
2019-01-15T03:25:04.606Z,24.67
2019-01-15T03:27:32.444Z,21.40
2019-01-15T03:30:00.308Z,28.33
2019-01-15T03:32:28.157Z,27.27
2019-01-15T03:34:56.360Z,25.97
2019-01-15T03:37:25.365Z,29.60
2019-01-15T03:39:53.195Z,30.33
2019-01-15T03:42:21.026Z,20.37
2019-01-15T03:44:49.273Z,28.30
2019-01-15T03:47:17.083Z,25.80
2019-01-15T03:49:44.902Z,21.70
2019-01-15T03:52:14.994Z,23.13
2019-01-15T03:54:42.826Z,28.37
2019-01-15T03:57:11.025Z,29.43
2019-01-15T03:59:38.869Z,23.77
2019-01-15T04:02:06.772Z,21.27
2019-01-15T04:04:35.872Z,16.53
2019-01-15T04:07:04.176Z,15.63
2019-01-15T04:09:32.731Z,21.57
2019-01-15T04:12:00.536Z,23.13
2019-01-15T04:14:28.496Z,14.47
2019-01-15T04:16:57.063Z,15.13
2019-01-15T04:19:24.981Z,16.57
2019-01-15T04:21:52.778Z,27.40
2019-01-15T04:24:20.607Z,21.10
2019-01-15T04:26:49.198Z,20.17
2019-01-15T04:29:17.554Z,18.93
2019-01-15T04:31:45.661Z,20.80
2019-01-15T04:34:13.489Z,22.80
2019-01-15T04:36:41.386Z,20.00
2019-01-15T04:39:09.671Z,22.97
2019-01-15T04:41:37.530Z,18.80
2019-01-15T04:44:05.345Z,21.87
2019-01-15T04:46:33.158Z,23.30
2019-01-15T04:49:02.691Z,23.33
2019-01-15T04:51:33.414Z,19.00
2019-01-15T04:54:09.603Z,24.63
2019-01-15T04:56:37.899Z,19.40
2019-01-15T04:59:08.201Z,25.43
2019-01-15T05:01:40.101Z,15.07
2019-01-15T05:04:08.337Z,20.27
2019-01-15T05:06:37.070Z,26.25
2019-01-15T05:09:07.843Z,17.53
2019-01-15T05:11:36.520Z,24.47
2019-01-15T05:14:05.048Z,19.90
2019-01-15T05:16:33.353Z,16.37
2019-01-15T05:19:05.199Z,24.53
2019-01-15T05:21:33.059Z,25.17
2019-01-15T05:24:01.870Z,18.33
2019-01-15T05:26:30.046Z,14.97
2019-01-15T05:28:58.579Z,19.83
2019-01-15T05:31:27.603Z,15.73
2019-01-15T05:33:55.960Z,16.80
2019-01-15T05:36:24.136Z,15.60
2019-01-15T05:38:53.578Z,18.43
2019-01-15T05:41:22.083Z,12.53
2019-01-15T05:43:50.463Z,21.83
2019-01-15T05:46:33.048Z,19.73
2019-01-15T05:49:00.866Z,15.97
2019-01-15T05:51:37.947Z,15.60
2019-01-15T05:54:06.352Z,20.77
2019-01-15T05:56:34.706Z,21.70
2019-01-15T05:59:03.132Z,25.40
2019-01-15T06:01:31.514Z,23.40
2019-01-15T06:04:00.374Z,17.30
2019-01-15T06:06:28.632Z,20.50
2019-01-15T06:08:57.840Z,18.00
2019-01-15T06:11:26.193Z,18.20
2019-01-15T06:13:54.422Z,13.00
2019-01-15T06:16:22.823Z,19.47
2019-01-15T06:18:51.311Z,14.33
2019-01-15T06:21:20.251Z,21.13
2019-01-15T06:23:49.196Z,24.53
2019-01-15T06:26:18.256Z,19.70
2019-01-15T06:28:47.303Z,21.67
2019-01-15T06:31:18.371Z,27.07
2019-01-15T06:33:46.933Z,32.83
2019-01-15T06:36:16.626Z,37.70
2019-01-15T06:38:46.576Z,27.63
2019-01-15T06:41:15.599Z,23.23
2019-01-15T06:43:49.748Z,20.10
2019-01-15T06:46:13.093Z,21.97
2019-01-15T06:48:41.014Z,29.57
2019-01-15T06:51:09.091Z,22.57
2019-01-15T06:53:37.900Z,22.70
2019-01-15T06:56:10.067Z,17.07
2019-01-15T06:58:38.014Z,19.50
2019-01-15T07:01:07.842Z,27.97
2019-01-15T07:03:35.760Z,18.20
2019-01-15T07:06:04.759Z,17.27
2019-01-15T07:08:33.312Z,20.50
2019-01-15T07:11:05.063Z,19.47
2019-01-15T07:13:35.017Z,16.80
2019-01-15T07:16:03.870Z,17.30
2019-01-15T07:18:34.367Z,11.97
2019-01-15T07:21:03.298Z,22.03
2019-01-15T07:23:31.642Z,15.03
2019-01-15T07:25:59.828Z,27.63
2019-01-15T07:28:28.192Z,20.43
2019-01-15T07:31:00.295Z,24.07
2019-01-15T07:33:30.069Z,18.80
2019-01-15T07:35:58.384Z,25.43
2019-01-15T07:38:27.269Z,15.90
2019-01-15T07:40:55.102Z,21.57
2019-01-15T07:43:22.947Z,14.93
2019-01-15T07:45:50.921Z,20.00
2019-01-15T07:48:19.197Z,23.13
2019-01-15T07:50:47.139Z,16.13
2019-01-15T07:53:16.435Z,16.30
2019-01-15T07:55:45.266Z,16.90
2019-01-15T07:58:13.134Z,17.60
2019-01-15T08:00:42.085Z,16.20
2019-01-15T08:03:10.254Z,20.33
2019-01-15T08:05:38.124Z,27.90
2019-01-15T08:08:06.128Z,22.57
2019-01-15T08:10:34.885Z,25.23
2019-01-15T08:13:02.894Z,34.33
2019-01-15T08:15:30.870Z,26.63
2019-01-15T08:17:59.174Z,24.57
2019-01-15T08:20:26.965Z,34.43
2019-01-15T08:22:54.733Z,44.53
2019-01-15T08:25:22.568Z,37.53
2019-01-15T08:27:50.342Z,41.77
2019-01-15T08:30:26.810Z,37.57
2019-01-15T08:32:54.694Z,38.30
2019-01-15T08:35:22.735Z,39.67
2019-01-15T08:37:50.532Z,34.30
2019-01-15T08:40:18.708Z,27.43
2019-01-15T08:42:46.579Z,26.77
2019-01-15T08:45:16.549Z,22.23
2019-01-15T08:47:46.807Z,20.57
2019-01-15T08:50:16.797Z,28.93
2019-01-15T08:52:44.591Z,22.63
2019-01-15T08:55:12.782Z,22.27
2019-01-15T08:57:40.599Z,25.33
2019-01-15T09:00:09.651Z,20.70
2019-01-15T09:02:37.553Z,20.17
2019-01-15T09:05:05.485Z,23.97
2019-01-15T09:07:33.405Z,22.03
2019-01-15T09:10:01.189Z,20.43
2019-01-15T09:12:29.034Z,24.70
2019-01-15T09:14:57.007Z,23.23
2019-01-15T09:17:25.182Z,17.83
2019-01-15T09:19:53.023Z,21.63
2019-01-15T09:22:20.839Z,21.30
2019-01-15T09:24:50.290Z,21.87
2019-01-15T09:27:18.313Z,20.23
2019-01-15T09:29:46.138Z,19.53
2019-01-15T09:32:13.949Z,19.80
2019-01-15T09:34:41.754Z,17.10
2019-01-15T09:37:11.811Z,23.07
2019-01-15T09:39:39.626Z,15.07
2019-01-15T09:42:07.443Z,18.20
2019-01-15T09:44:35.521Z,12.93
2019-01-15T09:47:03.492Z,16.63
2019-01-15T09:49:38.474Z,10.53
2019-01-15T09:52:13.134Z,12.77
2019-01-15T09:54:36.172Z,14.40
2019-01-15T09:57:05.770Z,19.90
2019-01-15T09:59:33.682Z,21.57
2019-01-15T10:02:01.526Z,19.83
2019-01-15T10:04:29.323Z,18.97
2019-01-15T10:06:57.218Z,14.63
2019-01-15T10:09:25.425Z,23.10
2019-01-15T10:11:53.260Z,23.90
2019-01-15T10:14:21.042Z,17.73
2019-01-15T10:16:50.106Z,24.63
2019-01-15T10:19:17.884Z,14.03
2019-01-15T10:21:46.438Z,16.90
2019-01-15T10:24:14.230Z,22.27
2019-01-15T10:26:42.158Z,14.17
2019-01-15T10:29:12.814Z,16.77
2019-01-15T10:32:28.418Z,13.77
2019-01-15T10:34:57.721Z,17.03
2019-01-15T10:37:25.488Z,26.57
2019-01-15T10:39:53.338Z,16.43
2019-01-15T10:42:21.133Z,18.53
2019-01-15T10:44:57.213Z,16.90
2019-01-15T10:47:25.040Z,15.63
2019-01-15T10:49:54.950Z,13.30
2019-01-15T10:52:23.243Z,14.00
2019-01-15T10:54:52.828Z,21.40
2019-01-15T10:57:21.023Z,16.13
2019-01-15T10:59:55.737Z,22.23
2019-01-15T11:02:24.211Z,15.53
2019-01-15T11:04:53.050Z,14.80
2019-01-15T11:07:30.153Z,14.60
2019-01-15T11:09:57.882Z,12.93
2019-01-15T11:12:26.831Z,25.53
2019-01-15T11:14:56.251Z,15.17
2019-01-15T11:17:25.146Z,16.23
2019-01-15T11:19:53.132Z,18.10
2019-01-15T11:22:20.927Z,15.90
2019-01-15T11:24:48.738Z,13.83
2019-01-15T11:27:18.141Z,17.33
2019-01-15T11:29:45.933Z,15.17
2019-01-15T11:32:14.510Z,13.47
2019-01-15T11:34:43.591Z,23.33
2019-01-15T11:37:11.418Z,19.30
2019-01-15T11:39:39.669Z,16.90
2019-01-15T11:42:07.621Z,11.20
2019-01-15T11:44:35.484Z,18.80
2019-01-15T11:47:03.629Z,15.10
2019-01-15T11:49:32.973Z,18.20
2019-01-15T11:52:00.826Z,18.33
2019-01-15T11:54:30.700Z,12.20
2019-01-15T11:56:59.641Z,16.13
2019-01-15T11:59:28.170Z,12.00
2019-01-15T12:02:05.704Z,14.43
2019-01-15T12:04:48.599Z,17.63
2019-01-15T12:07:41.980Z,13.00
2019-01-15T12:10:25.859Z,12.63
2019-01-15T12:13:22.011Z,19.27
2019-01-15T12:16:00.964Z,9.33
2019-01-15T12:19:07.647Z,16.20
2019-01-15T12:21:57.862Z,8.97
2019-01-15T12:24:40.114Z,10.67
2019-01-15T12:27:27.910Z,12.57
2019-01-15T12:30:20.501Z,11.47
2019-01-15T12:33:06.785Z,16.77
2019-01-15T12:35:46.431Z,6.50
2019-01-15T12:38:24.738Z,5.13
2019-01-15T12:41:15.539Z,6.40
2019-01-15T12:44:01.489Z,5.33
2019-01-15T12:46:47.549Z,12.58
2019-01-15T12:49:47.742Z,15.97
2019-01-15T12:52:44.803Z,20.57
2019-01-15T12:55:31.000Z,16.80
2019-01-15T12:58:33.625Z,14.27
2019-01-15T13:01:30.200Z,15.23
2019-01-15T13:04:17.574Z,5.90
2019-01-15T13:07:08.681Z,12.47
2019-01-15T13:09:54.589Z,10.47
2019-01-15T13:12:57.293Z,9.17
2019-01-15T13:15:44.090Z,10.63
2019-01-15T13:18:28.497Z,4.57
2019-01-15T13:21:22.493Z,9.00
2019-01-15T13:24:15.550Z,7.03
2019-01-15T13:27:00.389Z,6.10
2019-01-15T13:29:46.616Z,7.57
2019-01-15T13:32:35.654Z,12.67
2019-01-15T13:35:18.591Z,7.97
2019-01-15T13:38:04.725Z,4.43
2019-01-15T13:41:04.453Z,14.50
2019-01-15T13:44:00.326Z,8.93
2019-01-15T13:46:39.463Z,8.40
2019-01-15T13:49:26.633Z,15.20
2019-01-15T13:52:14.982Z,9.07
2019-01-15T13:55:02.290Z,9.17
2019-01-15T13:57:52.348Z,5.20
2019-01-15T14:00:42.919Z,8.63
2019-01-15T14:03:26.666Z,11.90
2019-01-15T14:06:25.925Z,6.80
2019-01-15T14:09:08.725Z,12.50
2019-01-15T14:11:50.615Z,13.53
2019-01-15T14:14:36.626Z,14.27
2019-01-15T14:17:21.163Z,9.77
2019-01-15T14:20:14.283Z,10.63
2019-01-15T14:23:01.627Z,21.07
2019-01-15T14:26:04.392Z,16.67
2019-01-15T14:28:50.626Z,13.83
2019-01-15T14:31:40.981Z,23.13
2019-01-15T14:34:27.071Z,9.60
2019-01-15T14:37:13.019Z,10.30
2019-01-15T14:40:04.487Z,12.63
2019-01-15T14:43:10.196Z,8.87
2019-01-15T14:46:00.819Z,9.77
2019-01-15T14:48:51.521Z,22.10
2019-01-15T14:51:39.129Z,21.73
2019-01-15T14:54:41.559Z,11.10
2019-01-15T14:57:27.608Z,23.57
2019-01-15T15:00:24.819Z,12.30
2019-01-15T15:03:08.665Z,11.83
2019-01-15T15:06:04.618Z,6.43
2019-01-15T15:08:51.411Z,19.23
2019-01-15T15:11:35.938Z,8.20
2019-01-15T15:14:21.838Z,32.33
2019-01-15T15:17:09.227Z,11.97
2019-01-15T15:19:48.267Z,7.37
2019-01-15T15:22:46.066Z,18.20
2019-01-15T15:25:36.327Z,77.20
2019-01-15T15:28:26.628Z,15.70
2019-01-15T15:31:17.978Z,15.17
2019-01-15T15:34:18.462Z,25.67
2019-01-15T15:37:09.915Z,16.90
2019-01-15T15:40:08.521Z,24.00
2019-01-15T15:42:55.201Z,22.53
2019-01-15T15:45:42.520Z,7.90
2019-01-15T15:48:41.646Z,11.47
2019-01-15T15:51:29.816Z,9.30
2019-01-15T15:54:15.727Z,16.53
2019-01-15T15:57:02.287Z,13.20
2019-01-15T16:00:04.506Z,22.17
2019-01-15T16:03:07.191Z,14.43
2019-01-15T16:05:53.393Z,9.53
2019-01-15T16:08:52.408Z,14.67
2019-01-15T16:11:41.012Z,27.82
2019-01-15T16:14:20.979Z,33.70
2019-01-15T16:17:11.883Z,14.37
2019-01-15T16:19:57.295Z,15.57
2019-01-15T16:22:44.968Z,19.47
2019-01-15T16:25:41.610Z,17.03
2019-01-15T16:28:27.922Z,16.73
2019-01-15T16:31:14.003Z,19.50
2019-01-15T16:34:00.514Z,32.80
2019-01-15T16:37:00.135Z,14.37
2019-01-15T16:39:53.396Z,22.63
2019-01-15T16:42:45.634Z,38.03
2019-01-15T16:45:32.355Z,61.13
2019-01-15T16:48:25.493Z,28.57
2019-01-15T16:51:08.568Z,17.53
2019-01-15T16:54:01.023Z,21.63
2019-01-15T16:56:52.422Z,45.17
2019-01-15T16:59:51.709Z,24.80
2019-01-15T17:02:47.468Z,14.80
2019-01-15T17:05:35.905Z,43.07
2019-01-15T17:08:22.288Z,29.97
2019-01-15T17:11:10.696Z,24.97
2019-01-15T17:14:10.719Z,23.27
2019-01-15T17:17:07.974Z,18.50
2019-01-15T17:19:52.768Z,18.83
2019-01-15T17:22:30.916Z,30.23
2019-01-15T17:25:30.119Z,17.80
2019-01-15T17:28:15.155Z,15.50
2019-01-15T17:31:08.416Z,42.33
2019-01-15T17:33:55.603Z,46.30
2019-01-15T17:36:41.586Z,17.27
2019-01-15T17:39:35.300Z,24.17
2019-01-15T17:42:21.748Z,20.20
2019-01-15T17:45:08.819Z,26.47
2019-01-15T17:47:59.928Z,18.90
2019-01-15T17:50:47.662Z,29.93
2019-01-15T17:53:42.427Z,23.70
2019-01-15T17:56:39.566Z,18.00
2019-01-15T17:59:38.752Z,22.93
2019-01-15T18:02:24.948Z,19.35
2019-01-15T18:05:10.853Z,20.37
2019-01-15T18:08:01.048Z,28.62
2019-01-15T18:11:03.705Z,19.35
2019-01-15T18:13:53.209Z,25.23
2019-01-15T18:16:37.816Z,23.27
2019-01-15T18:19:17.468Z,29.67
2019-01-15T18:22:14.038Z,25.67
2019-01-15T18:25:07.227Z,20.17
2019-01-15T18:28:02.375Z,24.53
2019-01-15T18:30:44.748Z,15.53
2019-01-15T18:33:51.423Z,23.70
2019-01-15T18:36:40.049Z,17.03
2019-01-15T18:39:33.550Z,21.87
2019-01-15T18:42:22.832Z,20.03
2019-01-15T18:45:13.083Z,27.77
2019-01-15T18:48:01.262Z,28.87
2019-01-15T18:51:04.012Z,30.00
2019-01-15T18:54:03.917Z,22.67
2019-01-15T18:56:53.549Z,21.77
2019-01-15T18:59:41.997Z,30.30
2019-01-15T19:02:35.882Z,31.93
2019-01-15T19:05:23.533Z,23.63
2019-01-15T19:08:05.738Z,32.00
2019-01-15T19:11:01.611Z,24.70
2019-01-15T19:13:52.189Z,21.20
2019-01-15T19:17:03.259Z,19.53
2019-01-15T19:20:05.943Z,27.93
2019-01-15T19:22:52.412Z,30.73
2019-01-15T19:25:29.645Z,20.50
2019-01-15T19:28:20.047Z,26.43
2019-01-15T19:31:14.105Z,15.87
2019-01-15T19:34:00.929Z,23.23
2019-01-15T19:36:52.067Z,27.90
2019-01-15T19:39:47.454Z,20.60
2019-01-15T19:42:38.271Z,21.47
2019-01-15T19:45:26.594Z,24.43
2019-01-15T19:48:26.914Z,34.23
2019-01-15T19:51:30.037Z,30.90
2019-01-15T19:54:32.819Z,28.40
2019-01-15T19:57:22.855Z,32.07
2019-01-15T20:00:09.495Z,29.10
2019-01-15T20:03:00.603Z,39.97
2019-01-15T20:05:47.187Z,35.17
2019-01-15T20:08:35.385Z,35.60
2019-01-15T20:11:25.930Z,33.67
2019-01-15T20:14:17.061Z,39.60
2019-01-15T20:16:55.216Z,37.83
2019-01-15T20:19:38.660Z,35.60
2019-01-15T20:22:38.988Z,39.53
2019-01-15T20:25:25.850Z,35.63
2019-01-15T20:28:12.769Z,39.83
2019-01-15T20:31:00.522Z,30.20
2019-01-15T20:34:06.545Z,30.80
2019-01-15T20:36:53.047Z,30.33
2019-01-15T20:39:43.493Z,31.57
2019-01-15T20:42:30.976Z,25.97
2019-01-15T20:45:19.124Z,32.23
2019-01-15T20:48:06.133Z,41.47
2019-01-15T20:50:54.394Z,45.07
2019-01-15T20:53:42.130Z,31.73
2019-01-15T20:56:33.835Z,36.07
2019-01-15T20:59:34.255Z,26.37
2019-01-15T21:02:20.385Z,32.50
2019-01-15T21:05:20.163Z,21.97
2019-01-15T21:08:10.975Z,23.60
2019-01-15T21:11:11.136Z,26.50
2019-01-15T21:13:58.154Z,27.10
2019-01-15T21:16:44.941Z,24.90
2019-01-15T21:19:31.331Z,21.97
2019-01-15T21:22:26.790Z,27.53
2019-01-15T21:25:11.854Z,27.10
2019-01-15T21:27:59.470Z,25.77
2019-01-15T21:30:50.680Z,44.93
2019-01-15T21:33:39.989Z,37.00
2019-01-15T21:36:24.503Z,44.53
2019-01-15T21:39:08.838Z,42.33
2019-01-15T21:42:14.819Z,50.00
2019-01-15T21:45:01.262Z,44.80
2019-01-15T21:47:51.918Z,31.13
2019-01-15T21:50:45.659Z,33.03
2019-01-15T21:53:42.877Z,33.37
2019-01-15T21:56:29.354Z,32.60
2019-01-15T21:59:23.021Z,31.80
2019-01-15T22:02:09.404Z,33.47
2019-01-15T22:04:51.386Z,33.10
2019-01-15T22:07:39.553Z,27.50
2019-01-15T22:10:25.931Z,30.13
2019-01-15T22:13:08.766Z,45.17
2019-01-15T22:16:02.306Z,25.83
2019-01-15T22:18:48.855Z,31.33
2019-01-15T22:21:42.387Z,34.33
2019-01-15T22:24:29.985Z,23.60
2019-01-15T22:27:23.608Z,30.63
2019-01-15T22:30:00.034Z,28.77
2019-01-15T22:33:00.384Z,29.73
2019-01-15T22:35:48.114Z,30.53
2019-01-15T22:38:46.316Z,45.60
2019-01-15T22:41:25.962Z,32.07
2019-01-15T22:44:23.395Z,28.70
2019-01-15T22:47:09.796Z,29.03
2019-01-15T22:49:56.183Z,32.70
2019-01-15T22:52:31.542Z,33.27
2019-01-15T22:55:17.874Z,34.43
2019-01-15T22:58:03.442Z,45.17
2019-01-15T23:01:01.825Z,36.20
2019-01-15T23:03:49.240Z,34.40
2019-01-15T23:06:39.928Z,31.60
2019-01-15T23:09:32.110Z,33.17
2019-01-15T23:12:34.765Z,33.47
2019-01-15T23:15:22.198Z,30.43
2019-01-15T23:18:06.130Z,40.23
2019-01-15T23:21:11.876Z,37.77
2019-01-15T23:24:02.578Z,43.97
2019-01-15T23:26:48.777Z,45.17
2019-01-15T23:29:39.390Z,33.90
2019-01-15T23:32:25.626Z,44.53
2019-01-15T23:35:22.419Z,34.00
2019-01-15T23:38:06.380Z,36.73
2019-01-15T23:40:52.776Z,41.07
2019-01-15T23:43:39.158Z,35.50
2019-01-15T23:46:17.892Z,41.90
2019-01-15T23:49:04.515Z,38.97
2019-01-15T23:51:54.036Z,36.10
2019-01-15T23:54:40.252Z,41.73
2019-01-15T23:57:27.989Z,31.13
